sensor_id;sensor_type;location;lat;lon;timestamp;P1;durP1;ratioP1;P2;durP2;ratioP2
23494;SDS011;26107;50.832;2.950;2024-01-25T00:10:27;19.42;;;5.47;;
23494;SDS011;26107;50.832;2.950;2024-01-25T00:25:27;37.58;;;5.90;;
23494;SDS011;26107;50.832;2.950;2024-01-25T00:40:30;29.02;;;5.78;;
23494;SDS011;26107;50.832;2.950;2024-01-25T00:55:34;28.58;;;6.18;;
23494;SDS011;26107;50.832;2.950;2024-01-25T01:10:34;34.45;;;6.85;;
23494;SDS011;26107;50.832;2.950;2024-01-25T01:25:37;29.23;;;8.13;;
23494;SDS011;26107;50.832;2.950;2024-01-25T01:40:38;23.60;;;5.38;;
23494;SDS011;26107;50.832;2.950;2024-01-25T01:55:39;24.23;;;4.80;;
23494;SDS011;26107;50.832;2.950;2024-01-25T02:10:41;27.27;;;6.05;;
23494;SDS011;26107;50.832;2.950;2024-01-25T02:25:43;23.38;;;5.45;;
23494;SDS011;26107;50.832;2.950;2024-01-25T02:40:45;36.20;;;5.53;;
23494;SDS011;26107;50.832;2.950;2024-01-25T02:55:48;29.05;;;4.65;;
23494;SDS011;26107;50.832;2.950;2024-01-25T03:10:49;32.67;;;5.15;;
23494;SDS011;26107;50.832;2.950;2024-01-25T03:25:50;22.08;;;3.90;;
23494;SDS011;26107;50.832;2.950;2024-01-25T03:40:51;13.32;;;3.20;;
23494;SDS011;26107;50.832;2.950;2024-01-25T03:55:51;8.75;;;2.33;;
23494;SDS011;26107;50.832;2.950;2024-01-25T04:10:54;27.67;;;4.75;;
23494;SDS011;26107;50.832;2.950;2024-01-25T04:25:57;31.23;;;5.72;;
23494;SDS011;26107;50.832;2.950;2024-01-25T04:56:01;26.42;;;4.38;;
23494;SDS011;26107;50.832;2.950;2024-01-25T05:11:04;10.73;;;3.13;;
23494;SDS011;26107;50.832;2.950;2024-01-25T05:26:05;7.55;;;2.53;;
23494;SDS011;26107;50.832;2.950;2024-01-25T05:41:06;10.73;;;2.58;;
23494;SDS011;26107;50.832;2.950;2024-01-25T06:11:10;15.13;;;4.07;;
23494;SDS011;26107;50.832;2.950;2024-01-25T06:26:12;39.15;;;3.88;;
23494;SDS011;26107;50.832;2.950;2024-01-25T06:41:13;41.50;;;7.07;;
23494;SDS011;26107;50.832;2.950;2024-01-25T06:56:15;16.42;;;5.00;;
23494;SDS011;26107;50.832;2.950;2024-01-25T07:11:20;14.18;;;4.63;;
23494;SDS011;26107;50.832;2.950;2024-01-25T07:26:21;11.53;;;4.57;;
23494;SDS011;26107;50.832;2.950;2024-01-25T07:41:25;12.00;;;5.40;;
23494;SDS011;26107;50.832;2.950;2024-01-25T07:56:25;18.30;;;5.80;;
23494;SDS011;26107;50.832;2.950;2024-01-25T08:26:27;28.35;;;7.20;;
23494;SDS011;26107;50.832;2.950;2024-01-25T08:41:27;22.10;;;5.65;;
23494;SDS011;26107;50.832;2.950;2024-01-25T08:56:32;27.90;;;6.40;;
23494;SDS011;26107;50.832;2.950;2024-01-25T09:11:33;34.58;;;7.45;;
23494;SDS011;26107;50.832;2.950;2024-01-25T09:26:36;25.00;;;6.93;;
23494;SDS011;26107;50.832;2.950;2024-01-25T09:41:36;22.92;;;7.05;;
23494;SDS011;26107;50.832;2.950;2024-01-25T09:56:37;21.03;;;6.57;;
23494;SDS011;26107;50.832;2.950;2024-01-25T10:11:41;15.57;;;6.20;;
23494;SDS011;26107;50.832;2.950;2024-01-25T10:26:44;17.33;;;5.38;;
23494;SDS011;26107;50.832;2.950;2024-01-25T10:41:48;14.57;;;4.95;;
23494;SDS011;26107;50.832;2.950;2024-01-25T10:56:50;13.10;;;5.53;;
23494;SDS011;26107;50.832;2.950;2024-01-25T11:11:55;14.45;;;6.47;;
23494;SDS011;26107;50.832;2.950;2024-01-25T11:26:57;20.52;;;7.00;;
23494;SDS011;26107;50.832;2.950;2024-01-25T11:42:01;17.23;;;7.55;;
23494;SDS011;26107;50.832;2.950;2024-01-25T11:57:01;19.80;;;9.02;;
23494;SDS011;26107;50.832;2.950;2024-01-25T12:12:02;13.63;;;6.87;;
23494;SDS011;26107;50.832;2.950;2024-01-25T12:27:07;12.50;;;7.13;;
23494;SDS011;26107;50.832;2.950;2024-01-25T12:42:07;10.05;;;6.47;;
23494;SDS011;26107;50.832;2.950;2024-01-25T12:57:11;11.82;;;6.32;;
23494;SDS011;26107;50.832;2.950;2024-01-25T13:12:12;19.85;;;7.57;;
23494;SDS011;26107;50.832;2.950;2024-01-25T13:27:16;15.25;;;7.03;;
23494;SDS011;26107;50.832;2.950;2024-01-25T13:42:19;17.70;;;8.07;;
23494;SDS011;26107;50.832;2.950;2024-01-25T13:57:20;14.10;;;6.97;;
23494;SDS011;26107;50.832;2.950;2024-01-25T14:12:23;17.77;;;7.30;;
23494;SDS011;26107;50.832;2.950;2024-01-25T14:27:24;22.40;;;8.05;;
23494;SDS011;26107;50.832;2.950;2024-01-25T14:42:25;16.85;;;7.95;;
23494;SDS011;26107;50.832;2.950;2024-01-25T14:57:25;13.57;;;6.68;;
23494;SDS011;26107;50.832;2.950;2024-01-25T15:12:26;10.50;;;4.88;;
23494;SDS011;26107;50.832;2.950;2024-01-25T15:27:29;6.03;;;3.38;;
23494;SDS011;26107;50.832;2.950;2024-01-25T15:42:29;4.07;;;2.50;;
23494;SDS011;26107;50.832;2.950;2024-01-25T15:57:31;5.15;;;2.78;;
23494;SDS011;26107;50.832;2.950;2024-01-25T16:12:31;3.20;;;2.90;;
23494;SDS011;26107;50.832;2.950;2024-01-25T16:27:32;3.00;;;2.42;;
23494;SDS011;26107;50.832;2.950;2024-01-25T16:42:35;3.95;;;2.97;;
23494;SDS011;26107;50.832;2.950;2024-01-25T16:57:35;2.95;;;2.65;;
23494;SDS011;26107;50.832;2.950;2024-01-25T17:12:36;4.53;;;3.40;;
23494;SDS011;26107;50.832;2.950;2024-01-25T17:27:39;3.53;;;3.20;;
23494;SDS011;26107;50.832;2.950;2024-01-25T17:42:42;6.07;;;3.50;;
23494;SDS011;26107;50.832;2.950;2024-01-25T17:57:42;5.97;;;3.33;;
23494;SDS011;26107;50.832;2.950;2024-01-25T18:12:45;4.07;;;2.97;;
23494;SDS011;26107;50.832;2.950;2024-01-25T18:27:46;6.22;;;4.55;;
23494;SDS011;26107;50.832;2.950;2024-01-25T18:42:47;8.95;;;4.28;;
23494;SDS011;26107;50.832;2.950;2024-01-25T18:57:50;6.35;;;5.00;;
23494;SDS011;26107;50.832;2.950;2024-01-25T19:12:53;5.72;;;4.90;;
23494;SDS011;26107;50.832;2.950;2024-01-25T19:27:55;6.65;;;4.93;;
23494;SDS011;26107;50.832;2.950;2024-01-25T19:42:56;9.18;;;5.47;;
23494;SDS011;26107;50.832;2.950;2024-01-25T19:57:59;8.68;;;6.15;;
23494;SDS011;26107;50.832;2.950;2024-01-25T20:13:00;7.68;;;6.32;;
23494;SDS011;26107;50.832;2.950;2024-01-25T20:28:01;6.07;;;4.88;;
23494;SDS011;26107;50.832;2.950;2024-01-25T20:43:01;8.63;;;5.78;;
23494;SDS011;26107;50.832;2.950;2024-01-25T20:58:03;9.13;;;5.50;;
23494;SDS011;26107;50.832;2.950;2024-01-25T21:13:03;7.95;;;5.68;;
23494;SDS011;26107;50.832;2.950;2024-01-25T21:28:07;9.52;;;5.63;;
23494;SDS011;26107;50.832;2.950;2024-01-25T21:43:08;6.63;;;5.72;;
23494;SDS011;26107;50.832;2.950;2024-01-25T21:58:08;6.72;;;4.88;;
23494;SDS011;26107;50.832;2.950;2024-01-25T22:13:09;5.18;;;4.03;;
23494;SDS011;26107;50.832;2.950;2024-01-25T22:28:10;11.57;;;4.53;;
23494;SDS011;26107;50.832;2.950;2024-01-25T22:43:14;5.18;;;3.88;;
23494;SDS011;26107;50.832;2.950;2024-01-25T22:58:14;4.55;;;3.85;;
23494;SDS011;26107;50.832;2.950;2024-01-25T23:13:15;6.70;;;4.50;;
23494;SDS011;26107;50.832;2.950;2024-01-25T23:28:18;8.82;;;5.18;;
23494;SDS011;26107;50.832;2.950;2024-01-25T23:43:19;11.20;;;5.65;;
23494;SDS011;26107;50.832;2.950;2024-01-25T23:58:19;6.45;;;5.03;;
